createdAt,value
2024-04-10T00:07:11.580Z,0
2024-04-10T00:19:06.653Z,0
2024-04-10T00:31:05.348Z,0
2024-04-10T00:43:05.178Z,0
2024-04-10T00:55:05.942Z,0
2024-04-10T01:07:05.567Z,0
2024-04-10T01:19:05.411Z,0
2024-04-10T01:31:05.432Z,0
2024-04-10T01:43:05.577Z,0
2024-04-10T01:55:05.291Z,0
2024-04-10T02:07:05.295Z,0
2024-04-10T02:19:05.874Z,0
2024-04-10T02:31:05.599Z,0
2024-04-10T02:43:06.102Z,0
2024-04-10T02:55:05.566Z,0
2024-04-10T03:07:06.560Z,0
2024-04-10T03:19:05.542Z,0
2024-04-10T03:31:05.747Z,0
2024-04-10T03:43:06.382Z,0
2024-04-10T03:55:05.737Z,0
2024-04-10T04:07:05.639Z,0
2024-04-10T04:19:05.428Z,0
2024-04-10T04:31:05.990Z,0
2024-04-10T04:43:05.494Z,0
2024-04-10T04:55:05.864Z,0
2024-04-10T05:07:05.886Z,0
2024-04-10T05:19:06.234Z,0
2024-04-10T05:31:05.525Z,0
2024-04-10T05:43:05.724Z,0
2024-04-10T05:55:05.423Z,0
2024-04-10T06:07:06.496Z,0
2024-04-10T06:19:05.885Z,2
2024-04-10T06:31:05.739Z,2
2024-04-10T06:43:05.552Z,4
2024-04-10T06:55:05.913Z,3
2024-04-10T07:07:05.652Z,4
2024-04-10T07:19:05.585Z,3
2024-04-10T07:31:06.216Z,7
2024-04-10T07:43:05.911Z,0
2024-04-10T07:55:05.718Z,2
2024-04-10T08:07:05.863Z,4
2024-04-10T08:19:05.785Z,4
2024-04-10T08:31:05.829Z,4
2024-04-10T08:43:05.753Z,0
2024-04-10T08:55:05.772Z,1
2024-04-10T09:07:06.079Z,1
2024-04-10T09:19:05.813Z,0
2024-04-10T09:31:05.984Z,5
2024-04-10T09:43:06.284Z,7
2024-04-10T09:55:06.270Z,3
2024-04-10T10:07:06.255Z,8
2024-04-10T10:19:06.044Z,14
2024-04-10T10:43:06.105Z,15
2024-04-10T10:55:05.864Z,18
2024-04-10T11:07:06.579Z,35
2024-04-10T11:19:06.261Z,11
2024-04-10T11:31:06.051Z,13
2024-04-10T11:43:05.785Z,13
2024-04-10T11:55:06.041Z,18
2024-04-10T12:07:06.152Z,8
2024-04-10T12:19:06.060Z,17
2024-04-10T12:31:05.879Z,13
2024-04-10T12:43:06.068Z,12
2024-04-10T12:55:05.986Z,22
2024-04-10T13:07:06.067Z,13
2024-04-10T13:19:09.333Z,8
2024-04-10T13:31:06.109Z,30
2024-04-10T13:43:06.906Z,8
2024-04-10T13:55:06.259Z,8
2024-04-10T14:07:05.937Z,11
2024-04-10T14:19:06.383Z,8
2024-04-10T14:31:06.317Z,14
2024-04-10T14:43:06.065Z,19
2024-04-10T14:55:06.217Z,22
2024-04-10T15:07:06.344Z,5
2024-04-10T15:19:06.120Z,5
2024-04-10T15:31:06.282Z,8
2024-04-10T15:43:06.425Z,7
2024-04-10T15:55:06.217Z,7
2024-04-10T16:07:06.572Z,5
2024-04-10T16:19:06.336Z,12
2024-04-10T16:31:06.279Z,5
2024-04-10T16:43:06.196Z,10
2024-04-10T16:55:06.233Z,10
2024-04-10T17:07:06.199Z,7
2024-04-10T17:19:06.482Z,13
2024-04-10T17:31:06.276Z,5
2024-04-10T17:43:06.195Z,11
2024-04-10T17:55:06.209Z,16
2024-04-10T18:07:06.377Z,7
2024-04-10T18:19:06.616Z,10
2024-04-10T18:31:06.479Z,11
2024-04-10T18:43:08.193Z,14
2024-04-10T18:55:06.559Z,14
2024-04-10T19:07:06.530Z,16
2024-04-10T19:19:06.571Z,12
2024-04-10T19:31:06.425Z,21
2024-04-10T19:43:06.413Z,12
2024-04-10T19:55:06.357Z,15
2024-04-10T20:07:06.282Z,9
2024-04-10T20:19:06.748Z,7
2024-04-10T20:31:06.400Z,17
2024-04-10T20:43:06.580Z,12
2024-04-10T20:55:06.961Z,17
2024-04-10T21:07:06.498Z,11
2024-04-10T21:19:06.446Z,7
2024-04-10T21:31:06.900Z,10
2024-04-10T21:43:06.477Z,6
2024-04-10T21:55:08.131Z,0
2024-04-10T22:07:06.892Z,4
2024-04-10T22:19:06.933Z,9
2024-04-10T22:31:06.555Z,11
2024-04-10T22:43:06.487Z,3
2024-04-10T22:55:06.491Z,2
2024-04-10T23:07:20.322Z,3
2024-04-10T23:19:15.611Z,6
2024-04-10T23:31:06.724Z,3
2024-04-10T23:43:08.900Z,2
2024-04-10T23:55:06.859Z,5
